Latest Coastal Weather Observations for Larapuna (Eddystone Point)

IDT60701

Issued at 12:35 pm EST Tuesday 29 July 2014 (issued every 10 minutes, with the page automatically refreshed every 10 minutes)

About coastal observations | Map of coastal stations | Coastal observations for TAS | Marine services | Other Formats
Station Details ID: 092045 Name: LARAPUNA (EDDYSTONE POINT) Lat: -40.99 Lon: 148.35 Height: 19.7 m
Data from the previous 72 hours. | See also: Recent months at Larapuna (Eddystone Point)
Date/Time
EST
Temp

°C
Wind Pressure Rain
since 9am
mm
Weather Cloud Vis
km
Sea
Height
m
Swell
Dir
 
Speed
knots
Gust
knots
hPa Trend Height
m
Period
s
Dir
29/12:35pm 12.0 NNW 29 39 996.0 - 1.8 - - - - - - -
29/12:30pm 12.1 NNW 29 37 996.1 - 1.6 - - - - - - -
29/12:00pm 13.1 NW 36 50 996.0 - 0.2 Rain - - - - - -
29/11:30am 14.1 NW 35 53 996.6 - 0.0 - - - - - - -
29/11:00am 13.7 NW 33 47 997.4 - 0.0 - - - - - - -
29/10:30am 12.9 NW 35 47 998.0 - 0.0 - - - - - - -
29/10:00am 13.7 NW 35 46 998.0 - 0.0 - - - - - - -
29/09:30am 13.2 NNW 32 42 998.7 - 0.0 - - - - - - -
29/09:00am 13.4 NNW 31 43 999.1 - 18.4 Recent precip. - - - - - -
29/08:30am 13.1 NNW 30 42 999.6 - 18.4 - - - - - - -
29/08:00am 12.7 NNW 32 43 999.4 - 18.2 - - - - - - -
29/07:30am 12.3 NW 28 38 999.7 - 18.0 - - - - - - -
29/07:07am 12.2 NNW 29 39 999.8 - 17.8 - - - - - - -
29/07:00am 12.1 NNW 29 37 999.9 - 17.8 - - - - - - -
29/06:40am 12.0 NW 25 35 1000.4 - 17.6 - - - - - - -
29/06:30am 12.0 NW 27 35 1000.6 - 17.4 - - - - - - -
29/06:10am 12.1 NW 27 37 1000.6 - 16.6 - - - - - - -
29/06:00am 12.1 NW 28 37 1000.7 - 16.6 Recent precip. - - - - - -
29/05:30am 12.7 NW 33 43 1000.2 - 16.4 - - - - - - -
29/05:00am 12.3 NW 35 48 999.4 - 16.4 - - - - - - -
29/04:30am 12.3 NW 35 46 999.9 - 16.2 - - - - - - -
29/04:00am 12.4 NW 32 45 1000.6 - 16.2 - - - - - - -
29/03:42am 12.2 NW 31 43 1001.0 - 16.2 - - - - - - -
29/03:30am 11.9 NW 29 37 1001.3 - 16.2 - - - - - - -
29/03:01am 11.3 NW 23 34 1002.3 - 16.0 - - - - - - -
29/03:00am 11.3 NW 23 32 1002.4 - 16.0 - - - - - - -
29/02:30am 11.1 NW 22 28 1003.4 - 16.0 - - - - - - -
29/02:01am 11.0 NW 21 33 1003.9 - 16.0 - - - - - - -
29/02:00am 10.9 NW 21 27 1003.9 - 16.0 - - - - - - -
29/01:37am 10.4 NW 19 29 1004.4 - 15.8 - - - - - - -
29/01:30am 10.2 NW 21 29 1004.5 - 15.8 - - - - - - -
29/01:00am 9.9 WNW 18 27 1004.9 - 14.4 - - - - - - -
29/12:30am 9.9 NW 18 25 1005.8 - 11.8 - - - - - - -
29/12:01am 10.4 W 18 29 1005.6 - 8.8 - - - - - - -
29/12:00am 10.4 W 18 22 1005.6 - 8.6 Rain - - - - - -
 
Date/Time
EST
Temp

°C
Wind Pressure Rain
since 9am
mm
Weather Cloud Vis
km
Sea
Height
m
Swell
Dir
 
Speed
knots
Gust
knots
hPa Trend Height
m
Period
s
Dir
28/11:59pm 10.4 W 19 22 1005.6 - 8.4 - - - - - - -
28/11:30pm 11.6 NW 21 31 1005.8 - 5.8 - - - - - - -
28/11:29pm 11.6 NW 21 31 1005.8 - 5.8 - - - - - - -
28/11:00pm 11.3 NW 19 25 1005.5 - 5.4 - - - - - - -
28/10:30pm 10.8 NW 17 25 1005.7 - 5.4 - - - - - - -
28/10:00pm 10.4 NW 15 21 1006.4 - 5.4 - - - - - - -
28/09:30pm 10.3 NW 13 21 1006.5 - 5.4 - - - - - - -
28/09:20pm 10.6 NW 16 26 1006.6 - 5.4 - - - - - - -
28/09:00pm 10.4 NW 17 24 1006.9 - 5.0 Rain - - - - - -
28/08:38pm 10.3 WNW 16 27 1007.3 - 4.4 - - - - - - -
28/08:30pm 10.1 NW 17 22 1007.3 - 4.0 - - - - - - -
28/08:00pm 10.3 NNW 15 20 1006.9 - 3.8 - - - - - - -
28/07:30pm 9.5 WNW 16 24 1007.7 - 3.4 - - - - - - -
28/07:16pm 9.4 WNW 21 31 1008.0 - 1.8 - - - - - - -
28/07:00pm 10.3 WNW 24 32 1006.8 - 0.2 - - - - - - -
28/06:30pm 12.4 NW 28 40 1005.3 - 0.2 - - - - - - -
28/06:00pm 12.8 NW 24 35 1005.3 - 0.2 - - - - - - -
28/05:30pm 12.8 WNW 26 36 1005.5 - 0.2 - - - - - - -
28/05:00pm 12.8 WNW 25 36 1005.7 - 0.2 - - - - - - -
28/04:30pm 13.1 NW 26 36 1005.3 - 0.2 - - - - - - -
28/04:00pm 13.5 NW 24 35 1005.6 - 0.2 - - - - - - -
28/03:30pm 14.0 WNW 26 37 1005.7 - 0.2 - - - - - - -
28/03:00pm 14.3 WNW 28 43 1005.8 - 0.2 - - - - - - -
28/02:30pm 14.4 NW 28 39 1005.7 - 0.2 - - - - - - -
28/02:00pm 14.7 NW 29 42 1005.8 - 0.2 - - - - - - -
28/01:30pm 14.7 NW 26 38 1006.1 - 0.2 - - - - - - -
28/01:00pm 15.2 WNW 22 34 1006.9 - 0.2 - - - - - - -
28/12:30pm 15.2 WNW 23 34 1007.7 - 0.2 - - - - - - -
28/12:00pm 15.5 WNW 25 37 1008.3 - 0.2 - - - - - - -
28/11:35am 15.6 NW 20 30 1008.8 - 0.2 - - - - - - -
28/11:30am 15.2 NW 19 28 1009.0 - 0.2 - - - - - - -
28/11:10am 15.0 WNW 17 27 1009.5 - 0.2 - - - - - - -
28/11:00am 14.8 NW 21 29 1009.6 - 0.2 - - - - - - -
28/10:31am 14.7 NW 20 30 1009.9 - 0.2 - - - - - - -
28/10:30am 14.7 WNW 21 30 1009.9 - 0.2 - - - - - - -
28/10:00am 14.3 NW 21 32 1009.8 - 0.2 - - - - - - -
28/09:30am 13.9 NW 21 31 1010.0 - 0.2 - - - - - - -
28/09:01am 13.6 NW 17 30 1010.2 - 0.0 - - - - - - -
28/09:00am 13.7 NW 17 24 1010.2 - 0.0 - - - - - - -
28/08:40am 13.5 NW 17 30 1010.2 - 0.0 - - - - - - -
28/08:30am 13.4 NW 20 29 1010.0 - 0.0 - - - - - - -
28/08:12am 13.3 NW 19 29 1010.1 - 0.0 - - - - - - -
28/08:00am 13.2 NW 19 26 1010.3 - 0.0 - - - - - - -
28/07:34am 13.0 NW 19 29 1010.5 - 0.0 - - - - - - -
28/07:30am 13.0 NW 19 27 1010.5 - 0.0 - - - - - - -
28/07:00am 13.1 NW 17 27 1010.7 - 0.0 - - - - - - -
28/06:32am 13.1 NW 15 25 1010.5 - 0.0 - - - - - - -
28/06:30am 13.1 NW 16 25 1010.5 - 0.0 - - - - - - -
28/06:00am 12.7 NW 15 21 1010.4 - 0.0 - - - - - - -
28/05:30am 12.6 NW 14 21 1010.9 - 0.0 - - - - - - -
28/05:00am 12.5 NW 13 18 1011.2 - 0.0 - - - - - - -
28/04:30am 12.4 NW 14 19 1011.5 - 0.0 - - - - - - -
28/04:00am 12.4 NNW 10 15 1011.9 - 0.0 - - - - - - -
28/03:30am 12.7 NNW 12 16 1012.1 - 0.0 - - - - - - -
28/03:00am 12.7 NW 12 16 1012.5 - 0.0 - - - - - - -
28/02:30am 12.8 NNW 12 16 1013.0 - 0.0 - - - - - - -
28/02:00am 12.8 NW 13 18 1013.2 - 0.0 - - - - - - -
28/01:30am 12.9 NW 17 23 1013.2 - 0.0 - - - - - - -
28/01:19am 12.8 NW 15 27 1013.3 - 0.0 - - - - - - -
28/01:00am 12.5 NW 12 16 1013.6 - 0.0 - - - - - - -
28/12:30am 12.1 NW 12 16 1014.0 - 0.0 - - - - - - -
28/12:00am 12.2 NW 14 19 1014.3 - 0.0 - - - - - - -
 
Date/Time
EST
Temp

°C
Wind Pressure Rain
since 9am
mm
Weather Cloud Vis
km
Sea
Height
m
Swell
Dir
 
Speed
knots
Gust
knots
hPa Trend Height
m
Period
s
Dir
27/11:30pm 12.3 NW 15 21 1014.4 - 0.0 - - - - - - -
27/11:00pm 12.3 NW 14 19 1014.5 - 0.0 - - - - - - -
27/10:30pm 12.1 NW 12 17 1015.0 - 0.0 - - - - - - -
27/10:00pm 12.1 NW 13 17 1015.3 - 0.0 - - - - - - -
27/09:30pm 12.1 NW 13 18 1015.4 - 0.0 - - - - - - -
27/09:00pm 11.9 NW 13 17 1015.7 - 0.0 - - - - - - -
27/08:30pm 11.9 NNW 12 16 1016.0 - 0.0 - - - - - - -
27/08:00pm 12.0 NW 13 17 1016.0 - 0.0 - - - - - - -
27/07:30pm 11.8 NW 12 17 1016.3 - 0.0 - - - - - - -
27/07:00pm 11.6 NW 13 19 1016.5 - 0.0 - - - - - - -
27/06:30pm 11.7 NW 12 16 1016.4 - 0.0 - - - - - - -
27/06:00pm 11.6 NW 13 16 1016.3 - 0.0 - - - - - - -
27/05:30pm 11.8 NW 14 18 1016.2 - 0.0 - - - - - - -
27/05:00pm 12.1 NW 16 20 1016.2 - 0.0 - - - - - - -
27/04:30pm 12.5 NW 15 21 1016.0 - 0.0 - - - - - - -
27/04:00pm 13.2 NW 17 26 1016.4 - 0.0 - - - - - - -
27/03:54pm 13.3 NW 16 26 1016.4 - 0.0 - - - - - - -
27/03:30pm 13.0 NW 12 17 1016.7 - 0.0 - - - - - - -
27/03:00pm 13.2 WNW 15 25 1016.9 - 0.0 - - - - - - -
27/02:51pm 13.4 WNW 15 27 1016.9 - 0.0 - - - - - - -
27/02:30pm 13.5 WNW 14 19 1016.9 - 0.0 - - - - - - -
27/02:00pm 14.0 WNW 14 19 1017.0 - 0.0 - - - - - - -
27/01:30pm 13.8 WNW 16 24 1017.2 - 0.0 - - - - - - -
27/01:00pm 13.9 WNW 12 19 1017.4 - 0.0 - - - - - - -
27/12:30pm 14.3 WNW 13 19 1018.0 - 0.0 - - - - - - -
27/12:00pm 14.0 W 10 14 1018.7 - 0.0 - - - - - - -
27/11:30am 13.4 W 14 20 1019.3 - 0.0 - - - - - - -
27/11:00am 12.0 W 17 24 1019.9 - 0.0 - - - - - - -
27/10:30am 11.0 W 13 18 1020.3 - 0.0 - - - - - - -
27/10:00am 9.7 WNW 13 20 1020.7 - 0.0 - - - - - - -
27/09:30am 9.6 NW 12 16 1020.5 - 0.0 - - - - - - -
27/09:00am 9.7 NW 10 13 1020.6 - 0.2 - - - - - - -
27/08:30am 8.2 WNW 13 18 1020.7 - 0.2 - - - - - - -
27/08:00am 7.0 NW 10 15 1020.6 - 0.2 - - - - - - -
27/07:30am 6.9 NW 8 10 1020.5 - 0.2 - - - - - - -
27/07:00am 6.8 NW 8 11 1020.6 - 0.2 - - - - - - -
27/06:30am 8.0 NW 9 11 1020.3 - 0.2 - - - - - - -
27/06:00am 8.7 WNW 9 10 1020.2 - 0.2 - - - - - - -
27/05:30am 8.5 W 6 7 1019.9 - 0.2 - - - - - - -
27/05:00am 8.8 WNW 9 11 1020.3 - 0.2 - - - - - - -
27/04:30am 9.1 W 5 6 1020.1 - 0.2 - - - - - - -
27/04:00am 8.2 W 6 9 1020.3 - 0.2 - - - - - - -
27/03:30am 8.9 SW 4 5 1020.2 - 0.0 - - - - - - -
27/03:00am 10.2 W 4 5 1020.4 - 0.0 - - - - - - -
27/02:30am 9.8 W 5 6 1020.5 - 0.0 - - - - - - -
27/02:00am 9.8 SW 4 5 1020.7 - 0.0 - - - - - - -
27/01:30am 9.8 WSW 6 6 1020.7 - 0.0 - - - - - - -
27/01:00am 9.9 WSW 6 7 1020.9 - 0.0 - - - - - - -
27/12:30am 9.5 WSW 6 7 1020.9 - 0.0 - - - - - - -
27/12:00am 9.9 SW 7 7 1021.1 - 0.0 - - - - - - -
 
Date/Time
EST
Temp

°C
Wind Pressure Rain
since 9am
mm
Weather Cloud Vis
km
Sea
Height
m
Swell
Dir
 
Speed
knots
Gust
knots
hPa Trend Height
m
Period
s
Dir
26/11:30pm 10.0 WSW 7 8 1021.1 - 0.0 - - - - - - -
26/11:00pm 9.7 WSW 7 8 1021.1 - 0.0 - - - - - - -
26/10:30pm 9.8 WSW 6 7 1021.1 - 0.0 - - - - - - -
26/10:00pm 9.9 SW 5 6 1021.1 - 0.0 - - - - - - -
26/09:30pm 10.2 SW 4 6 1020.8 - 0.0 - - - - - - -
26/09:00pm 11.0 SW 7 9 1020.9 - 0.0 - - - - - - -
26/08:30pm 11.4 SW 8 9 1020.5 - 0.0 - - - - - - -
26/08:00pm 11.5 SW 7 9 1020.4 - 0.0 - - - - - - -
26/07:30pm 11.7 SSW 7 8 1020.2 - 0.0 - - - - - - -
26/07:00pm 11.5 SW 6 7 1020.3 - 0.0 - - - - - - -
26/06:30pm 11.8 S 5 6 1020.1 - 0.0 - - - - - - -
26/06:00pm 12.1 S 6 7 1019.9 - 0.0 - - - - - - -
26/05:30pm 12.4 S 7 8 1019.6 - 0.0 - - - - - - -
26/05:00pm 12.5 S 3 5 1019.3 - 0.0 - - - - - - -
26/04:30pm 12.8 NW 2 5 1019.1 - 0.0 - - - - - - -
26/04:00pm 13.1 NW 4 5 1019.1 - 0.0 - - - - - - -
26/03:30pm 13.5 NNW 5 6 1018.9 - 0.0 - - - - - - -
26/03:00pm 14.3 N 5 7 1018.8 - 0.0 - - - - - - -
26/02:30pm 13.4 N 7 8 1018.7 - 0.0 - - - - - - -
26/02:00pm 14.0 N 6 9 1018.8 - 0.0 - - - - - - -
26/01:30pm 14.6 N 6 8 1018.8 - 0.0 - - - - - - -
26/01:00pm 15.3 NE 4 5 1019.2 - 0.0 - - - - - - -

Other Formats:

Comma delimited format used in spreadsheet applications
http://www.bom.gov.au/fwo/IDT60701/IDT60701.94983.axf

JavaScript Object Notation format (JSON) in row-major order
http://www.bom.gov.au/fwo/IDT60701/IDT60701.94983.json